createdAt,value
2023-10-20T00:01:56.821Z,10.80
2023-10-20T00:04:45.448Z,11.38
2023-10-20T00:07:33.373Z,12.40
2023-10-20T00:10:20.898Z,10.18
2023-10-20T00:13:09.313Z,11.05
2023-10-20T00:15:56.942Z,12.25
2023-10-20T00:18:45.874Z,10.13
2023-10-20T00:21:33.585Z,11.13
2023-10-20T00:24:22.570Z,10.65
2023-10-20T00:27:10.538Z,12.38
2023-10-20T00:29:58.154Z,11.75
2023-10-20T00:32:46.598Z,9.80
2023-10-20T00:35:36.477Z,12.15
2023-10-20T00:38:24.327Z,9.60
2023-10-20T00:41:11.978Z,10.63
2023-10-20T00:43:59.444Z,10.35
2023-10-20T00:46:47.102Z,10.20
2023-10-20T00:49:35.745Z,10.90
2023-10-20T00:52:26.920Z,9.23
2023-10-20T00:55:16.532Z,9.77
2023-10-20T00:58:05.758Z,11.38
2023-10-20T01:00:53.279Z,10.18
2023-10-20T01:03:41.028Z,10.05
2023-10-20T01:06:29.050Z,9.68
2023-10-20T01:09:26.674Z,8.93
2023-10-20T01:12:14.643Z,9.70
2023-10-20T01:15:03.340Z,9.15
2023-10-20T01:17:53.181Z,8.90
2023-10-20T01:20:41.299Z,11.48
2023-10-20T01:23:29.150Z,10.55
2023-10-20T01:26:18.855Z,12.38
2023-10-20T01:29:10.727Z,12.63
2023-10-20T01:31:58.482Z,10.63
2023-10-20T01:34:46.242Z,11.38
2023-10-20T01:37:33.932Z,10.55
2023-10-20T01:40:22.997Z,10.68
2023-10-20T01:43:12.061Z,12.15
2023-10-20T01:45:59.902Z,10.15
2023-10-20T01:48:47.283Z,9.07
2023-10-20T01:51:35.933Z,12.07
2023-10-20T01:54:24.232Z,10.18
2023-10-20T01:57:12.069Z,11.77
2023-10-20T02:00:02.976Z,10.73
2023-10-20T02:02:50.581Z,12.65
2023-10-20T02:05:38.664Z,11.40
2023-10-20T02:08:26.340Z,10.23
2023-10-20T02:11:13.919Z,11.23
2023-10-20T02:14:01.801Z,12.93
2023-10-20T02:16:50.804Z,9.15
2023-10-20T02:19:38.950Z,10.68
2023-10-20T02:22:26.437Z,11.18
2023-10-20T02:25:16.703Z,11.20
2023-10-20T02:28:04.799Z,11.48
2023-10-20T02:30:52.602Z,8.32
2023-10-20T02:33:42.017Z,10.70
2023-10-20T02:36:29.526Z,11.57
2023-10-20T02:39:19.257Z,10.07
2023-10-20T02:42:07.322Z,11.68
2023-10-20T02:44:54.937Z,11.00
2023-10-20T02:47:42.563Z,9.80
2023-10-20T02:50:31.666Z,11.23
2023-10-20T02:53:19.524Z,9.85
2023-10-20T02:56:13.721Z,11.18
2023-10-20T02:59:01.616Z,12.65
2023-10-20T03:01:49.385Z,11.77
2023-10-20T03:04:37.494Z,11.27
2023-10-20T03:07:28.511Z,11.57
2023-10-20T03:10:17.557Z,13.32
2023-10-20T03:13:09.172Z,12.25
2023-10-20T03:15:57.042Z,11.60
2023-10-20T03:18:44.562Z,11.93
2023-10-20T03:21:32.898Z,10.93
2023-10-20T03:24:21.995Z,8.98
2023-10-20T03:27:10.104Z,13.32
2023-10-20T03:29:57.913Z,10.52
2023-10-20T03:32:48.019Z,13.07
2023-10-20T03:35:37.581Z,10.20
2023-10-20T03:38:25.280Z,10.85
2023-10-20T03:41:15.810Z,10.35
2023-10-20T03:44:04.111Z,11.50
2023-10-20T03:46:57.790Z,11.57
2023-10-20T03:49:46.574Z,10.73
2023-10-20T03:52:34.139Z,10.50
2023-10-20T03:55:22.881Z,12.88
2023-10-20T03:58:15.218Z,10.13
2023-10-20T04:01:03.716Z,9.73
2023-10-20T04:03:52.871Z,11.13
2023-10-20T04:06:41.635Z,11.38
2023-10-20T04:09:30.357Z,10.52
2023-10-20T04:12:18.388Z,13.10
2023-10-20T04:15:13.557Z,12.93
2023-10-20T04:18:01.160Z,11.68
2023-10-20T04:20:50.307Z,10.38
2023-10-20T04:23:39.494Z,9.90
2023-10-20T04:26:28.164Z,10.70
2023-10-20T04:29:35.202Z,12.98
2023-10-20T04:32:50.572Z,12.75
2023-10-20T04:35:55.451Z,10.85
2023-10-20T04:39:00.456Z,12.38
2023-10-20T04:42:01.800Z,12.52
2023-10-20T04:45:20.369Z,12.05
2023-10-20T04:48:21.491Z,14.10
2023-10-20T04:51:19.552Z,12.60
2023-10-20T04:54:11.274Z,12.13
2023-10-20T04:57:32.635Z,12.30
2023-10-20T05:00:36.868Z,13.93
2023-10-20T05:03:36.177Z,14.60
2023-10-20T05:06:26.867Z,13.13
2023-10-20T05:09:18.911Z,11.93
2023-10-20T05:12:07.455Z,11.52
2023-10-20T05:14:55.812Z,11.23
2023-10-20T05:17:43.763Z,12.70
2023-10-20T05:20:33.175Z,14.27
2023-10-20T05:23:20.784Z,11.07
2023-10-20T05:26:10.466Z,12.88
2023-10-20T05:28:58.096Z,13.27
2023-10-20T05:31:45.997Z,14.13
2023-10-20T05:34:34.009Z,13.65
2023-10-20T05:37:23.625Z,12.75
2023-10-20T05:40:12.515Z,14.00
2023-10-20T05:43:01.068Z,12.10
2023-10-20T05:45:48.551Z,13.27
2023-10-20T05:48:35.996Z,11.45
2023-10-20T05:51:23.952Z,12.98
2023-10-20T05:54:12.927Z,12.15
2023-10-20T05:57:00.836Z,11.57
2023-10-20T05:59:48.645Z,11.77
2023-10-20T06:02:37.038Z,13.00
2023-10-20T06:05:25.164Z,12.48
2023-10-20T06:08:12.741Z,14.43
2023-10-20T06:11:07.581Z,11.55
2023-10-20T06:13:54.986Z,12.23
2023-10-20T06:16:43.471Z,11.50
2023-10-20T06:19:32.527Z,11.23
2023-10-20T06:22:20.461Z,10.75
2023-10-20T06:25:13.307Z,10.80
2023-10-20T06:28:02.548Z,10.27
2023-10-20T06:30:51.816Z,10.45
2023-10-20T06:33:39.689Z,9.73
2023-10-20T06:36:27.672Z,9.35
2023-10-20T06:39:16.146Z,10.52
2023-10-20T06:42:04.288Z,9.85
2023-10-20T06:44:53.781Z,10.27
2023-10-20T06:47:41.804Z,10.55
2023-10-20T06:50:29.600Z,9.15
2023-10-20T06:53:17.415Z,11.35
2023-10-20T06:56:15.166Z,10.52
2023-10-20T06:59:04.495Z,11.27
2023-10-20T07:01:57.365Z,12.00
2023-10-20T07:04:45.577Z,11.15
2023-10-20T07:07:33.419Z,11.50
2023-10-20T07:10:23.530Z,10.13
2023-10-20T07:13:12.938Z,10.50
2023-10-20T07:16:01.787Z,11.32
2023-10-20T07:18:51.294Z,10.38
2023-10-20T07:21:38.896Z,11.32
2023-10-20T07:24:28.024Z,11.05
2023-10-20T07:27:16.350Z,10.65
2023-10-20T07:30:07.963Z,12.40
2023-10-20T07:32:55.827Z,10.20
2023-10-20T07:35:45.492Z,11.13
2023-10-20T07:38:33.467Z,11.93
2023-10-20T07:41:21.165Z,11.68
2023-10-20T07:44:10.276Z,13.48
2023-10-20T07:46:57.922Z,11.32
2023-10-20T07:49:46.504Z,10.45
2023-10-20T07:52:36.487Z,11.02
2023-10-20T07:55:24.026Z,12.30
2023-10-20T07:58:11.830Z,10.40
2023-10-20T08:01:00.164Z,11.43
2023-10-20T08:03:49.434Z,12.10
2023-10-20T08:06:37.770Z,11.75
2023-10-20T08:09:27.417Z,11.55
2023-10-20T08:12:15.066Z,11.15
2023-10-20T08:15:04.125Z,12.40
2023-10-20T08:17:54.033Z,11.98
2023-10-20T08:20:42.527Z,13.18
2023-10-20T08:23:30.516Z,12.25
2023-10-20T08:26:21.128Z,11.45
2023-10-20T08:29:12.439Z,13.80
2023-10-20T08:32:00.509Z,13.55
2023-10-20T08:34:48.456Z,12.85
2023-10-20T08:37:36.957Z,12.95
2023-10-20T08:40:24.622Z,12.95
2023-10-20T08:43:14.461Z,12.77
2023-10-20T08:46:03.537Z,13.00
2023-10-20T08:48:52.133Z,12.07
2023-10-20T08:51:40.608Z,12.20
2023-10-20T08:54:28.801Z,11.27
2023-10-20T08:57:16.754Z,10.85
2023-10-20T09:00:08.519Z,11.77
2023-10-20T09:03:01.146Z,9.80
2023-10-20T09:05:49.098Z,12.00
2023-10-20T09:08:37.361Z,11.43
2023-10-20T09:11:31.894Z,11.52
2023-10-20T09:14:19.944Z,10.93
2023-10-20T09:17:10.984Z,11.50
2023-10-20T09:20:07.812Z,10.88
2023-10-20T09:22:55.627Z,10.90
2023-10-20T09:25:45.548Z,10.10
2023-10-20T09:28:35.720Z,11.43
2023-10-20T09:31:26.995Z,10.82
2023-10-20T09:34:16.652Z,9.98
2023-10-20T09:37:04.385Z,10.52
2023-10-20T09:39:56.682Z,10.88
2023-10-20T09:43:15.005Z,11.68
2023-10-20T09:46:30.675Z,10.15
2023-10-20T09:49:23.190Z,11.38
2023-10-20T09:52:12.039Z,11.38
2023-10-20T09:55:02.516Z,10.68
2023-10-20T09:57:51.441Z,10.98
2023-10-20T10:00:39.007Z,10.95
2023-10-20T10:03:31.109Z,11.40
2023-10-20T10:06:20.797Z,11.38
2023-10-20T10:09:09.498Z,10.32
2023-10-20T10:11:57.551Z,10.85
2023-10-20T10:14:56.915Z,10.50
2023-10-20T10:17:50.341Z,9.68
2023-10-20T10:20:47.052Z,10.32
2023-10-20T10:23:36.128Z,10.52
2023-10-20T10:26:31.230Z,11.18
2023-10-20T10:29:20.399Z,9.23
2023-10-20T10:32:14.711Z,10.10
2023-10-20T10:35:05.202Z,10.10
2023-10-20T10:37:54.522Z,9.88
2023-10-20T10:40:49.398Z,9.52
2023-10-20T10:43:38.254Z,9.70
2023-10-20T10:46:36.139Z,9.70
2023-10-20T10:49:23.649Z,9.57
2023-10-20T10:52:11.212Z,11.20
2023-10-20T10:54:59.254Z,9.68
2023-10-20T10:57:48.972Z,11.13
2023-10-20T11:00:38.207Z,10.85
2023-10-20T11:03:26.738Z,9.77
2023-10-20T11:06:15.179Z,11.63
2023-10-20T11:09:03.492Z,10.25
2023-10-20T11:11:52.859Z,9.65
2023-10-20T11:14:42.443Z,10.15
2023-10-20T11:17:30.622Z,10.38
2023-10-20T11:20:21.920Z,10.35
2023-10-20T11:23:12.367Z,11.30
2023-10-20T11:26:00.203Z,10.45
2023-10-20T11:28:47.824Z,12.68
2023-10-20T11:31:38.720Z,12.07
2023-10-20T11:34:27.386Z,10.48
2023-10-20T11:37:16.386Z,11.15
2023-10-20T11:40:05.532Z,11.68
2023-10-20T11:42:54.212Z,12.18
2023-10-20T11:45:42.208Z,12.00
2023-10-20T11:48:31.015Z,12.20
2023-10-20T11:51:18.985Z,12.60
2023-10-20T11:54:07.643Z,11.73
2023-10-20T11:56:55.403Z,12.40
2023-10-20T11:59:43.073Z,11.07
2023-10-20T12:02:31.370Z,12.07
2023-10-20T12:05:20.585Z,12.27
2023-10-20T12:08:08.667Z,12.50
2023-10-20T12:10:56.447Z,10.15
2023-10-20T12:13:48.030Z,13.25
2023-10-20T12:16:35.476Z,13.10
2023-10-20T12:19:23.242Z,12.85
2023-10-20T12:22:13.217Z,13.05
2023-10-20T12:25:01.174Z,11.77
2023-10-20T12:27:48.943Z,11.88
2023-10-20T12:30:36.969Z,11.88
2023-10-20T12:33:27.760Z,11.15
2023-10-20T12:36:17.422Z,12.52
2023-10-20T12:39:08.283Z,11.25
2023-10-20T12:41:57.009Z,12.07
2023-10-20T12:44:44.819Z,12.25
2023-10-20T12:47:34.155Z,13.10
2023-10-20T12:50:22.418Z,12.40
2023-10-20T12:53:10.861Z,11.07
2023-10-20T12:56:00.295Z,10.70
2023-10-20T12:58:47.907Z,11.07
2023-10-20T13:01:36.303Z,11.10
2023-10-20T13:04:25.369Z,9.80
2023-10-20T13:07:15.030Z,11.48
2023-10-20T13:10:05.837Z,10.82
2023-10-20T13:12:56.016Z,11.00
2023-10-20T13:15:47.446Z,11.98
2023-10-20T13:18:35.570Z,10.68
2023-10-20T13:21:27.592Z,10.00
2023-10-20T13:24:15.212Z,10.75
2023-10-20T13:27:02.887Z,10.10
2023-10-20T13:29:51.960Z,10.55
2023-10-20T13:32:40.016Z,11.02
2023-10-20T13:35:27.865Z,11.30
2023-10-20T13:38:18.900Z,9.65
2023-10-20T13:41:19.872Z,10.50
2023-10-20T13:44:09.278Z,11.38
2023-10-20T13:46:58.293Z,11.02
2023-10-20T13:49:46.297Z,12.80
2023-10-20T13:52:34.341Z,11.38
2023-10-20T13:55:21.847Z,11.13
2023-10-20T13:58:09.672Z,10.93
2023-10-20T14:00:57.893Z,10.63
2023-10-20T14:03:47.124Z,11.27
2023-10-20T14:06:36.144Z,11.07
2023-10-20T14:09:24.176Z,11.68
2023-10-20T14:12:12.142Z,12.07
2023-10-20T14:15:00.837Z,11.07
2023-10-20T14:17:49.093Z,10.77
2023-10-20T14:20:40.420Z,10.20
2023-10-20T14:23:29.734Z,10.80
2023-10-20T14:26:17.361Z,11.57
2023-10-20T14:29:05.730Z,12.75
2023-10-20T14:31:53.934Z,11.30
2023-10-20T14:34:41.905Z,9.73
2023-10-20T14:37:31.821Z,11.45
2023-10-20T14:40:20.116Z,10.50
2023-10-20T14:43:08.125Z,10.45
2023-10-20T14:45:59.323Z,11.80
2023-10-20T14:48:49.606Z,10.73
2023-10-20T14:51:37.189Z,10.52
2023-10-20T14:54:28.869Z,9.30
2023-10-20T14:57:18.224Z,9.65
2023-10-20T15:00:10.827Z,9.55
2023-10-20T15:02:59.275Z,9.30
2023-10-20T15:05:47.183Z,9.77
2023-10-20T15:08:35.585Z,9.93
2023-10-20T15:11:24.931Z,12.35
2023-10-20T15:14:12.861Z,12.57
2023-10-20T15:17:00.678Z,8.82
2023-10-20T15:19:48.250Z,9.32
2023-10-20T15:22:35.797Z,9.32
2023-10-20T15:25:23.523Z,8.70
2023-10-20T15:28:12.962Z,7.28
2023-10-20T15:31:00.918Z,6.00
2023-10-20T15:33:48.897Z,5.03
2023-10-20T15:36:52.443Z,4.88
2023-10-20T15:39:50.923Z,3.53
2023-10-20T15:42:33.431Z,4.70
2023-10-20T15:45:21.409Z,4.82
2023-10-20T15:48:13.484Z,3.70
2023-10-20T15:53:56.118Z,4.40
2023-10-20T15:56:53.157Z,4.60
2023-10-20T15:59:47.163Z,4.00
2023-10-20T16:02:35.459Z,4.13
2023-10-20T16:05:25.038Z,4.57
2023-10-20T16:08:13.267Z,5.15
2023-10-20T16:11:01.064Z,4.75
2023-10-20T16:13:49.846Z,5.10
2023-10-20T16:16:41.044Z,3.63
2023-10-20T16:19:29.595Z,2.83
2023-10-20T16:22:17.504Z,2.88
2023-10-20T16:25:07.975Z,3.10
2023-10-20T16:27:58.583Z,2.97
2023-10-20T16:30:53.698Z,5.85
2023-10-20T16:33:47.939Z,8.68
2023-10-20T16:36:36.373Z,4.75
2023-10-20T16:39:28.023Z,3.60
2023-10-20T16:42:17.051Z,3.80
2023-10-20T16:45:08.531Z,2.50
2023-10-20T16:48:00.645Z,2.75
2023-10-20T16:51:04.975Z,2.40
2023-10-20T16:53:53.063Z,1.50
2023-10-20T16:56:44.382Z,1.63
2023-10-20T16:59:34.347Z,1.80
2023-10-20T17:02:25.756Z,2.10
2023-10-20T17:05:16.050Z,1.63
2023-10-20T17:08:05.539Z,1.80
2023-10-20T17:10:55.982Z,1.63
2023-10-20T17:13:47.826Z,2.00
2023-10-20T17:16:44.978Z,1.80
2023-10-20T17:19:35.108Z,1.92
2023-10-20T17:22:25.554Z,1.90
2023-10-20T17:25:14.789Z,2.03
2023-10-20T17:28:02.613Z,1.85
2023-10-20T17:30:55.538Z,1.85
2023-10-20T17:33:49.411Z,2.70
2023-10-20T17:36:42.922Z,1.45
2023-10-20T17:39:30.861Z,1.48
2023-10-20T17:42:24.287Z,1.52
2023-10-20T17:45:12.975Z,1.85
2023-10-20T17:48:04.339Z,1.67
2023-10-20T17:51:00.278Z,1.48
2023-10-20T17:53:49.674Z,1.48
2023-10-20T17:56:38.066Z,2.25
2023-10-20T17:59:27.891Z,1.70
2023-10-20T18:02:18.502Z,2.00
2023-10-20T18:05:07.829Z,1.80
2023-10-20T18:07:56.293Z,2.00
2023-10-20T18:10:48.786Z,1.48
2023-10-20T18:13:40.797Z,1.70
2023-10-20T18:16:33.282Z,2.03
2023-10-20T18:22:15.556Z,1.70
2023-10-20T18:25:04.154Z,1.77
2023-10-20T18:27:51.708Z,2.08
2023-10-20T18:30:39.288Z,1.70
2023-10-20T18:33:30.308Z,1.65
2023-10-20T18:36:17.914Z,1.95
2023-10-20T18:39:05.648Z,2.00
2023-10-20T18:41:53.728Z,1.92
2023-10-20T18:44:41.303Z,1.70
2023-10-20T18:47:29.260Z,2.30
2023-10-20T18:50:18.297Z,2.58
2023-10-20T18:53:06.011Z,2.03
2023-10-20T18:55:53.678Z,2.13
2023-10-20T18:58:41.184Z,2.50
2023-10-20T19:01:28.737Z,2.33
2023-10-20T19:04:16.357Z,2.35
2023-10-20T19:07:06.008Z,2.45
2023-10-20T19:09:55.162Z,1.73
2023-10-20T19:12:42.708Z,2.33
2023-10-20T19:15:30.444Z,2.13
2023-10-20T19:18:18.304Z,1.70
2023-10-20T19:21:08.055Z,1.60
2023-10-20T19:23:57.072Z,1.92
2023-10-20T19:26:45.214Z,1.83
2023-10-20T19:29:33.227Z,1.80
2023-10-20T19:32:22.670Z,1.75
2023-10-20T19:35:11.806Z,1.98
2023-10-20T19:38:00.048Z,1.80
2023-10-20T19:40:49.507Z,1.90
2023-10-20T19:43:37.010Z,2.25
2023-10-20T19:46:24.514Z,2.20
2023-10-20T19:49:12.699Z,2.35
2023-10-20T19:52:00.650Z,2.33
2023-10-20T19:54:48.292Z,4.88
2023-10-20T19:57:37.018Z,4.80
2023-10-20T20:00:25.198Z,3.00
2023-10-20T20:03:13.291Z,4.03
2023-10-20T20:06:08.942Z,4.00
2023-10-20T20:08:56.905Z,4.57
2023-10-20T20:11:44.516Z,3.58
2023-10-20T20:14:33.521Z,3.10
2023-10-20T20:17:21.187Z,2.42
2023-10-20T20:20:10.381Z,2.35
2023-10-20T20:22:58.135Z,2.50
2023-10-20T20:25:45.608Z,2.95
2023-10-20T20:28:34.039Z,3.15
2023-10-20T20:31:22.885Z,3.20
2023-10-20T20:34:10.943Z,3.10
2023-10-20T20:36:59.370Z,3.40
2023-10-20T20:39:46.993Z,3.38
2023-10-20T20:42:34.972Z,3.45
2023-10-20T20:45:22.649Z,3.40
2023-10-20T20:48:12.052Z,3.45
2023-10-20T20:50:59.852Z,3.47
2023-10-20T20:53:47.777Z,3.35
2023-10-20T20:56:35.665Z,3.65
2023-10-20T20:59:23.319Z,3.80
2023-10-20T21:02:12.350Z,3.95
2023-10-20T21:05:01.389Z,4.07
2023-10-20T21:07:49.117Z,3.20
2023-10-20T21:10:36.677Z,2.90
2023-10-20T21:13:24.326Z,4.00
2023-10-20T21:16:13.982Z,3.00
2023-10-20T21:19:03.078Z,2.33
2023-10-20T21:21:51.846Z,1.95
2023-10-20T21:24:39.858Z,2.42
2023-10-20T21:27:29.341Z,2.50
2023-10-20T21:30:16.996Z,2.70
2023-10-20T21:33:05.222Z,2.75
2023-10-20T21:35:52.884Z,5.03
2023-10-20T21:38:42.103Z,3.10
2023-10-20T21:41:29.907Z,3.22
2023-10-20T21:44:17.408Z,2.80
2023-10-20T21:47:05.353Z,2.75
2023-10-20T21:49:53.218Z,2.30
2023-10-20T21:52:42.282Z,2.90
2023-10-20T21:55:31.138Z,2.40
2023-10-20T21:58:19.091Z,2.92
2023-10-20T22:01:08.057Z,2.25
2023-10-20T22:03:55.919Z,2.95
2023-10-20T22:06:43.709Z,3.38
2023-10-20T22:09:41.741Z,3.28
2023-10-20T22:12:39.540Z,4.55
2023-10-20T22:15:27.426Z,4.15
2023-10-20T22:18:15.587Z,3.70
2023-10-20T22:21:03.512Z,3.97
2023-10-20T22:23:51.098Z,3.80
2023-10-20T22:26:41.067Z,3.60
2023-10-20T22:29:30.700Z,3.30
2023-10-20T22:32:18.229Z,3.58
2023-10-20T22:35:07.036Z,3.55
2023-10-20T22:37:54.675Z,3.17
2023-10-20T22:40:42.673Z,2.95
2023-10-20T22:43:30.291Z,2.95
2023-10-20T22:46:19.238Z,3.20
2023-10-20T22:49:06.995Z,2.28
2023-10-20T22:51:54.625Z,2.42
2023-10-20T22:54:42.347Z,2.50
2023-10-20T22:57:30.672Z,1.95
2023-10-20T23:00:18.664Z,1.75
2023-10-20T23:03:07.793Z,2.15
2023-10-20T23:05:55.657Z,2.38
2023-10-20T23:08:43.243Z,2.55
2023-10-20T23:11:30.721Z,2.50
2023-10-20T23:14:18.204Z,2.25
2023-10-20T23:17:05.868Z,2.35
2023-10-20T23:19:55.116Z,2.00
2023-10-20T23:22:42.693Z,2.15
2023-10-20T23:25:30.297Z,1.88
2023-10-20T23:28:18.238Z,1.83
2023-10-20T23:31:05.950Z,1.90
2023-10-20T23:33:53.959Z,2.13
2023-10-20T23:36:43.228Z,2.00
2023-10-20T23:39:34.049Z,1.75
2023-10-20T23:42:22.164Z,1.90
2023-10-20T23:45:10.448Z,1.65
2023-10-20T23:47:58.026Z,1.75
2023-10-20T23:50:45.573Z,1.77
2023-10-20T23:53:34.702Z,1.85
2023-10-20T23:56:22.264Z,1.50
2023-10-20T23:59:09.876Z,1.55
